الصفحة الرئيسية
METAR-TAF:

METAR-TAF

مطار :

Gladstone, أستراليا

دائرة عرض: 23-52-11S, خط طول: 151-13-22E, ارتفاع: 18 متر

مراقبة الطقس الحالي

تاريخ ووقت الإصدار 30 دقيقة قبل الساعة 21:30UTC
ريح 4 عقدة من الجنوب/الجنوب الغربي
درجة الحرارة 13°درجة مئوية
الرطوبة 67%
ضغط 1019 hPa
الرؤية 10 كم أو أكثر

METAR: YGLA 252130Z AUTO 20004KT 9999 // NCD 13/07 Q1019 RF00.0/000.0

زمن: 08:00 (22:00 UTC)

توقعات

تاريخ ووقت الإصدار 6ساعات و 5 دقيقة قبل الساعة 15:55UTC
التوقعات صالحة من25 الساعة 18 UTC إلى 26 الساعة 06 UTC
ريح 5 عقدة من الجنوب الغربي
الرؤية 10 كم أو أكثر
الغيوم لا تقل 1500 م ولا وجود لمزنة ركامية السحاب الأسود
من 26 الساعة 0400 UTC
ريح 7 عقدة من الشمال الشرقي
الرؤية 10 كم أو أكثر
الغيوم لا تقل 1500 م ولا وجود لمزنة ركامية السحاب الأسود

TAF: YGLA 251555Z 2518/2606 22005KT CAVOK FM260400 04007KT CAVOK

أرصاد الطقس والتوقعات من أكثر من 4000 مطار (تقارير الطقس للمطار METAR والتنبؤ بالطقس بالمطارTAF).

المحطات المتاحة هي النقط الصفراء والحمراء على الخريطة.

حرك المؤشر فوق النقطة لمعرفة اسم المحطة.

ثم انقر لمعرفة أرصاد وتوقعات الطقس.

لتغيير الخارطة: اضغط على الأزرار الخضراء مع رمز الصليب الأسود للتكبير. على الزر الأخضر مع شرطة للتصغير، أو على الأسهم الخضراء للخرائط المجاورة.


METAR-TAF: